This is the latest recevied weather packets stored in our database for station/object KH6HHG. If no packets are shown the sender has not sent any weather packets the latest 10 day(s).
| Time | Temp. | Humidity | Pressure | Rain* | Wind** | Luminosity | Snow |
|---|---|---|---|---|---|---|---|
| 1777857398 | 24.44° C | 71% | 1011.8 hPa | 0 mm | - | - | - |
| 1777857098 | 25.56° C | 69% | 1011.8 hPa | 0 mm | - | - | - |
| 1777856798 | 25.56° C | 69% | 1011.7 hPa | 0 mm | - | - | - |
| 1777856498 | 25° C | 70% | 1011.7 hPa | 0 mm | - | - | - |
| 1777856198 | 24.44° C | 73% | 1011.6 hPa | 0 mm | - | - | - |
| 1777855898 | 24.44° C | 72% | 1011.8 hPa | 0 mm | - | - | - |
| 1777855598 | 24.44° C | 72% | 1011.7 hPa | 0 mm | - | - | - |
| 1777855298 | 24.44° C | 70% | 1011.8 hPa | 0 mm | - | - | - |
| 1777854998 | 24.44° C | 69% | 1011.8 hPa | 0 mm | - | - | - |
| 1777854698 | 24.44° C | 69% | 1011.8 hPa | 0 mm | - | - | - |
| 1777854398 | 23.89° C | 71% | 1011.8 hPa | 0 mm | - | - | - |
| 1777854098 | 24.44° C | 70% | 1011.9 hPa | 0 mm | - | - | - |
| 1777853798 | 25° C | 69% | 1012 hPa | 0 mm | - | - | - |
| 1777853498 | 25.56° C | 69% | 1012 hPa | 0 mm | - | - | - |
| 1777853198 | 25.56° C | 70% | 1011.9 hPa | 0 mm | - | - | - |
| 1777852898 | 25.56° C | 67% | 1012 hPa | 0 mm | - | - | - |
| 1777852598 | 25.56° C | 68% | 1012 hPa | 0 mm | - | - | - |
| 1777852298 | 25.56° C | 70% | 1012.1 hPa | 0 mm | - | - | - |
| 1777851998 | 25.56° C | 69% | 1012.2 hPa | 0 mm | - | - | - |
| 1777851698 | 25.56° C | 69% | 1012.2 hPa | 0 mm | - | - | - |
| 1777851398 | 25.56° C | 68% | 1012.2 hPa | 0 mm | - | - | - |
| 1777851098 | 26.11° C | 68% | 1012.2 hPa | 0 mm | - | - | - |
| 1777850798 | 25.56° C | 68% | 1012.2 hPa | 0 mm | - | - | - |
| 1777850498 | 25.56° C | 68% | 1012.4 hPa | 0 mm | - | - | - |
| 1777850198 | 25.56° C | 67% | 1012.4 hPa | 0 mm | - | - | - |
* Rain latest hour (hover to see other rain measurements)
** Current wind speed in m/s (hover to see current wind gust speed)